Time;durP1;ratioP1;P1;durP2;ratioP2;P2;SDS_P1;SDS_P2;PMS_P1;PMS_P2;Temp;Humidity;BMP_temperature;BMP_pressure;BME280_temperature;BME280_humidity;BME280_pressure;Samples;Min_cycle;Max_cycle;Signal;HPM_P1;HPM_P2
2023/04/20 00:00:10;;;;;;;7.32;3.05;;;;;;;;;;5072312;28;20456;-85
2023/04/20 00:02:37;;;;;;;5.57;2.90;;;;;;;;;;5070797;28;20503;-85
2023/04/20 00:05:09;;;;;;;5.60;2.80;;;;;;;;;;5072336;28;20501;-85
2023/04/20 00:07:35;;;;;;;5.97;2.90;;;;;;;;;;5071829;28;20425;-84
2023/04/20 00:10:02;;;;;;;5.85;3.00;;;;;;;;;;5067461;28;20423;-85
2023/04/20 00:12:31;;;;;;;4.30;2.92;;;;;;;;;;5071574;28;20434;-85
2023/04/20 00:14:57;;;;;;;5.07;3.05;;;;;;;;;;5072107;28;20563;-86
2023/04/20 00:17:23;;;;;;;5.18;2.78;;;;;;;;;;5070596;28;20422;-85
2023/04/20 00:19:49;;;;;;;5.30;2.90;;;;;;;;;;5052021;28;20764;-85
2023/04/20 00:22:16;;;;;;;4.90;2.83;;;;;;;;;;5065017;28;20417;-85
2023/04/20 00:24:42;;;;;;;5.47;2.80;;;;;;;;;;5065156;28;20429;-85
2023/04/20 00:27:08;;;;;;;6.80;2.90;;;;;;;;;;5067205;28;20471;-86
2023/04/20 00:29:37;;;;;;;3.58;2.63;;;;;;;;;;5069220;28;20434;-86
2023/04/20 00:32:03;;;;;;;3.65;2.80;;;;;;;;;;5048519;28;20426;-84
2023/04/20 00:34:32;;;;;;;4.35;2.80;;;;;;;;;;5073087;28;20426;-85
2023/04/20 00:36:58;;;;;;;3.40;2.90;;;;;;;;;;5078735;28;20441;-84
2023/04/20 00:39:24;;;;;;;7.07;3.00;;;;;;;;;;5070116;28;20435;-85
2023/04/20 00:41:50;;;;;;;6.32;2.80;;;;;;;;;;5064692;28;20502;-84
2023/04/20 00:44:16;;;;;;;4.82;2.83;;;;;;;;;;5069214;28;20410;-85
2023/04/20 00:46:42;;;;;;;5.85;2.90;;;;;;;;;;5065353;28;20426;-85
2023/04/20 00:49:11;;;;;;;7.60;3.00;;;;;;;;;;5068152;28;20441;-84
2023/04/20 00:51:37;;;;;;;5.57;3.10;;;;;;;;;;5066201;28;20441;-84
2023/04/20 00:54:04;;;;;;;4.80;2.70;;;;;;;;;;5045658;28;20483;-86
2023/04/20 00:56:33;;;;;;;4.13;2.70;;;;;;;;;;5061922;28;20432;-85
2023/04/20 00:59:01;;;;;;;4.35;3.20;;;;;;;;;;5065963;28;20422;-85
2023/04/20 01:01:27;;;;;;;4.65;3.10;;;;;;;;;;5063944;28;20465;-85
2023/04/20 01:03:54;;;;;;;5.38;3.00;;;;;;;;;;5065068;28;20481;-86
2023/04/20 01:06:20;;;;;;;5.70;3.30;;;;;;;;;;5071560;28;20419;-85
2023/04/20 01:08:50;;;;;;;5.50;3.20;;;;;;;;;;5070010;28;20422;-86
2023/04/20 01:11:18;;;;;;;5.93;3.10;;;;;;;;;;5064826;28;20446;-85
2023/04/20 01:13:44;;;;;;;5.60;2.97;;;;;;;;;;5066134;28;20481;-85
2023/04/20 01:16:11;;;;;;;4.75;3.30;;;;;;;;;;5050390;28;20422;-85
2023/04/20 01:18:43;;;;;;;4.90;3.53;;;;;;;;;;5070646;28;20467;-86
2023/04/20 01:21:10;;;;;;;4.55;3.50;;;;;;;;;;5069487;28;20458;-87
2023/04/20 01:23:39;;;;;;;5.32;3.20;;;;;;;;;;5066663;28;20480;-86
2023/04/20 01:26:06;;;;;;;4.20;3.20;;;;;;;;;;5052896;28;20436;-86
2023/04/20 01:28:38;;;;;;;7.63;3.33;;;;;;;;;;5056844;28;20425;-86
2023/04/20 01:31:08;;;;;;;5.07;3.50;;;;;;;;;;5084423;28;20517;-86
2023/04/20 01:33:34;;;;;;;4.72;3.53;;;;;;;;;;5066957;28;20430;-86
2023/04/20 01:36:00;;;;;;;5.18;3.60;;;;;;;;;;5065825;28;20398;-86
2023/04/20 01:38:31;;;;;;;5.07;3.50;;;;;;;;;;5068567;28;20418;-85
2023/04/20 01:40:58;;;;;;;5.45;3.40;;;;;;;;;;5081697;28;20475;-86
2023/04/20 01:43:25;;;;;;;6.88;3.47;;;;;;;;;;5069332;28;20426;-86
2023/04/20 01:45:51;;;;;;;5.03;3.42;;;;;;;;;;5078756;28;20426;-85
2023/04/20 01:48:17;;;;;;;4.95;3.60;;;;;;;;;;5067952;28;20428;-85
2023/04/20 01:50:46;;;;;;;5.38;3.60;;;;;;;;;;5072687;28;20467;-86
2023/04/20 01:53:12;;;;;;;5.75;3.53;;;;;;;;;;5067698;28;20474;-87
2023/04/20 01:55:38;;;;;;;5.10;3.65;;;;;;;;;;5067859;28;20420;-86
2023/04/20 01:58:07;;;;;;;4.65;3.70;;;;;;;;;;5068302;28;20489;-86
2023/04/20 02:00:33;;;;;;;5.80;3.80;;;;;;;;;;5067489;28;20424;-86
2023/04/20 02:02:59;;;;;;;6.20;3.80;;;;;;;;;;5068240;28;20568;-85
2023/04/20 02:05:25;;;;;;;5.95;3.75;;;;;;;;;;5068070;28;20419;-86
2023/04/20 02:07:51;;;;;;;4.75;3.70;;;;;;;;;;5072797;28;20414;-86
2023/04/20 02:10:18;;;;;;;6.18;3.78;;;;;;;;;;5064990;28;20420;-86
2023/04/20 02:12:44;;;;;;;5.50;3.97;;;;;;;;;;5069216;28;20422;-85
2023/04/20 02:15:10;;;;;;;5.70;3.80;;;;;;;;;;5065884;28;20420;-86
2023/04/20 02:17:39;;;;;;;7.25;4.05;;;;;;;;;;5067527;28;20447;-86
2023/04/20 02:20:07;;;;;;;6.03;3.80;;;;;;;;;;5069343;28;20515;-86
2023/04/20 02:22:34;;;;;;;6.25;3.90;;;;;;;;;;5069471;28;20414;-86
2023/04/20 02:25:03;;;;;;;5.13;4.00;;;;;;;;;;5064800;28;20457;-86
2023/04/20 02:27:29;;;;;;;5.78;4.10;;;;;;;;;;5066333;28;20422;-86
2023/04/20 02:29:56;;;;;;;6.13;3.70;;;;;;;;;;5061380;28;20467;-85
2023/04/20 02:32:25;;;;;;;4.67;3.77;;;;;;;;;;5068633;28;20511;-86
2023/04/20 02:34:51;;;;;;;7.47;3.97;;;;;;;;;;5068916;28;20419;-86
2023/04/20 02:37:17;;;;;;;5.53;4.07;;;;;;;;;;5066404;28;20418;-86
2023/04/20 02:39:46;;;;;;;6.07;3.80;;;;;;;;;;5068420;28;20458;-86
2023/04/20 02:42:12;;;;;;;5.13;4.03;;;;;;;;;;5049742;28;20457;-86
2023/04/20 02:44:43;;;;;;;5.55;4.00;;;;;;;;;;5072393;28;20403;-85
2023/04/20 02:47:09;;;;;;;5.43;3.97;;;;;;;;;;5063995;28;20419;-86
2023/04/20 02:49:35;;;;;;;6.45;4.20;;;;;;;;;;5066542;28;20472;-85
2023/04/20 02:52:02;;;;;;;5.93;3.97;;;;;;;;;;5054342;28;20475;-85
2023/04/20 02:54:30;;;;;;;4.65;3.78;;;;;;;;;;5068583;28;20418;-86
2023/04/20 02:56:57;;;;;;;5.75;4.00;;;;;;;;;;5069553;28;20431;-85
2023/04/20 02:59:23;;;;;;;6.13;4.10;;;;;;;;;;5066600;28;20441;-86
2023/04/20 03:01:52;;;;;;;5.72;4.10;;;;;;;;;;5055941;28;20515;-86
2023/04/20 03:04:19;;;;;;;6.25;4.10;;;;;;;;;;5073077;28;20408;-85
2023/04/20 03:06:45;;;;;;;5.60;3.80;;;;;;;;;;5073462;28;20422;-86
2023/04/20 03:09:14;;;;;;;5.22;3.97;;;;;;;;;;5072925;28;20425;-86
2023/04/20 03:11:40;;;;;;;7.20;4.23;;;;;;;;;;5084123;28;20475;-85
2023/04/20 03:14:06;;;;;;;6.10;4.30;;;;;;;;;;5073383;28;20426;-86
2023/04/20 03:16:33;;;;;;;4.95;4.20;;;;;;;;;;5072873;28;20460;-86
2023/04/20 03:18:59;;;;;;;6.38;4.07;;;;;;;;;;5072858;28;20433;-86
2023/04/20 03:21:25;;;;;;;5.47;4.20;;;;;;;;;;5072919;28;20474;-86
2023/04/20 03:23:51;;;;;;;4.78;4.00;;;;;;;;;;5073003;28;20423;-86
2023/04/20 03:26:17;;;;;;;6.20;4.28;;;;;;;;;;5072909;28;20446;-86
2023/04/20 03:28:43;;;;;;;5.95;4.00;;;;;;;;;;5072858;28;20422;-86
2023/04/20 03:31:09;;;;;;;5.65;4.07;;;;;;;;;;5054865;28;20442;-86
2023/04/20 03:33:35;;;;;;;6.33;4.40;;;;;;;;;;5073022;28;20419;-86
2023/04/20 03:36:01;;;;;;;5.70;4.13;;;;;;;;;;5072096;28;20406;-86
2023/04/20 03:38:27;;;;;;;6.88;4.57;;;;;;;;;;5055869;28;20446;-86
2023/04/20 03:40:56;;;;;;;5.68;4.18;;;;;;;;;;5089551;28;20414;-86
2023/04/20 03:43:23;;;;;;;5.60;4.40;;;;;;;;;;5079222;28;20430;-87
2023/04/20 03:45:49;;;;;;;5.85;4.40;;;;;;;;;;5089275;28;20414;-86
2023/04/20 03:48:18;;;;;;;6.78;4.38;;;;;;;;;;5076876;28;20505;-86
2023/04/20 03:50:44;;;;;;;5.50;4.40;;;;;;;;;;5072039;28;20415;-86
2023/04/20 03:53:10;;;;;;;7.45;4.38;;;;;;;;;;5071906;28;20418;-86
2023/04/20 03:55:36;;;;;;;6.85;4.60;;;;;;;;;;5072270;28;20469;-86
2023/04/20 03:58:02;;;;;;;5.82;4.53;;;;;;;;;;5071986;28;20429;-86
2023/04/20 04:00:28;;;;;;;7.47;4.55;;;;;;;;;;5072078;28;20489;-86
2023/04/20 04:02:54;;;;;;;6.30;4.47;;;;;;;;;;5071793;28;20485;-86
2023/04/20 04:05:20;;;;;;;5.90;4.53;;;;;;;;;;5072068;28;20414;-86
2023/04/20 04:07:49;;;;;;;7.40;4.40;;;;;;;;;;5068139;28;20445;-86
2023/04/20 04:10:17;;;;;;;7.63;4.32;;;;;;;;;;5072427;28;20394;-86
2023/04/20 04:12:43;;;;;;;5.22;4.40;;;;;;;;;;5072315;28;20402;-86
2023/04/20 04:15:12;;;;;;;5.63;4.50;;;;;;;;;;5088801;28;20410;-86
2023/04/20 04:17:38;;;;;;;5.63;4.13;;;;;;;;;;5072225;28;20470;-86
2023/04/20 04:20:07;;;;;;;5.65;4.28;;;;;;;;;;5089070;28;20421;-86
2023/04/20 04:22:33;;;;;;;5.78;4.60;;;;;;;;;;5067309;28;20422;-86
2023/04/20 04:24:59;;;;;;;8.40;4.45;;;;;;;;;;5071424;28;20415;-86
2023/04/20 04:27:28;;;;;;;5.90;4.20;;;;;;;;;;5071493;28;20434;-86
2023/04/20 04:29:55;;;;;;;5.60;4.40;;;;;;;;;;5071660;28;20499;-86
2023/04/20 04:32:23;;;;;;;7.85;4.50;;;;;;;;;;5084062;28;20464;-86
2023/04/20 04:34:49;;;;;;;5.70;4.28;;;;;;;;;;5052112;28;20434;-86
2023/04/20 04:37:18;;;;;;;7.82;4.50;;;;;;;;;;5082635;28;20421;-86
2023/04/20 04:39:44;;;;;;;6.38;4.20;;;;;;;;;;5071248;28;20479;-86
2023/04/20 04:42:10;;;;;;;6.30;4.20;;;;;;;;;;5059810;28;20414;-86
2023/04/20 04:44:36;;;;;;;6.35;4.30;;;;;;;;;;5071198;28;20453;-85
2023/04/20 04:47:05;;;;;;;5.55;4.07;;;;;;;;;;5071445;28;20410;-86
2023/04/20 04:49:31;;;;;;;5.90;4.60;;;;;;;;;;5087681;28;20484;-85
2023/04/20 04:51:57;;;;;;;6.88;4.65;;;;;;;;;;5071353;28;20452;-86
2023/04/20 04:54:26;;;;;;;5.97;4.50;;;;;;;;;;5071357;28;20418;-86
2023/04/20 04:56:52;;;;;;;5.53;4.30;;;;;;;;;;5071439;28;20450;-86
2023/04/20 04:59:18;;;;;;;7.60;4.43;;;;;;;;;;5070836;28;20430;-86
2023/04/20 05:01:44;;;;;;;5.18;4.40;;;;;;;;;;5071235;28;20484;-86
2023/04/20 05:04:10;;;;;;;7.03;4.30;;;;;;;;;;5064920;28;20540;-86
2023/04/20 05:06:36;;;;;;;4.50;4.10;;;;;;;;;;5068252;28;20469;-86
2023/04/20 05:09:03;;;;;;;4.90;4.40;;;;;;;;;;5063242;28;20407;-86
2023/04/20 05:11:30;;;;;;;6.18;4.28;;;;;;;;;;5061365;28;20419;-86
2023/04/20 05:13:56;;;;;;;7.78;4.28;;;;;;;;;;5070819;28;20426;-86
2023/04/20 05:16:22;;;;;;;5.53;4.32;;;;;;;;;;5074123;28;20472;-87
2023/04/20 05:18:48;;;;;;;6.68;4.35;;;;;;;;;;5071191;28;20422;-86
2023/04/20 05:21:16;;;;;;;6.57;4.27;;;;;;;;;;5071272;28;20481;-86
2023/04/20 05:23:43;;;;;;;6.35;4.60;;;;;;;;;;5075179;28;20406;-86
2023/04/20 05:26:11;;;;;;;5.57;4.50;;;;;;;;;;5068387;28;20434;-86
2023/04/20 05:28:37;;;;;;;6.17;4.47;;;;;;;;;;5065011;28;20422;-86
2023/04/20 05:31:06;;;;;;;6.30;4.35;;;;;;;;;;5048694;28;20431;-87
2023/04/20 05:33:33;;;;;;;5.45;4.38;;;;;;;;;;5066216;28;20406;-86
2023/04/20 05:35:59;;;;;;;6.25;4.43;;;;;;;;;;5066104;28;20414;-87
2023/04/20 05:38:27;;;;;;;5.43;4.27;;;;;;;;;;5069868;28;20410;-85
2023/04/20 05:40:53;;;;;;;4.93;4.35;;;;;;;;;;5047787;28;20432;-85
2023/04/20 05:43:19;;;;;;;6.27;4.50;;;;;;;;;;5061226;28;20425;-86
2023/04/20 05:45:46;;;;;;;5.77;4.50;;;;;;;;;;5043580;28;20478;-85
2023/04/20 05:48:15;;;;;;;6.30;4.47;;;;;;;;;;5067405;28;20402;-86
2023/04/20 05:50:41;;;;;;;6.20;4.30;;;;;;;;;;5061678;28;20419;-86
2023/04/20 05:53:07;;;;;;;5.80;4.70;;;;;;;;;;5061756;28;20498;-85
2023/04/20 05:55:33;;;;;;;4.80;4.32;;;;;;;;;;5044246;28;20413;-86
2023/04/20 05:57:59;;;;;;;6.05;4.40;;;;;;;;;;5060533;28;20408;-86
2023/04/20 06:00:25;;;;;;;6.05;4.63;;;;;;;;;;5052303;28;20434;-87
2023/04/20 06:02:53;;;;;;;7.25;4.50;;;;;;;;;;5074675;28;20438;-86
2023/04/20 06:05:21;;;;;;;6.38;4.30;;;;;;;;;;5073610;28;20410;-86
2023/04/20 06:07:47;;;;;;;7.57;4.28;;;;;;;;;;5067966;28;20418;-86
2023/04/20 06:10:13;;;;;;;5.70;4.32;;;;;;;;;;5081965;28;20509;-86
2023/04/20 06:12:39;;;;;;;4.95;4.00;;;;;;;;;;5074269;28;20472;-85
2023/04/20 06:15:09;;;;;;;6.65;4.40;;;;;;;;;;5054096;28;20420;-86
2023/04/20 06:17:39;;;;;;;7.50;4.20;;;;;;;;;;5072710;28;20410;-87
2023/04/20 06:20:08;;;;;;;6.72;4.55;;;;;;;;;;5073310;28;20426;-85
2023/04/20 06:22:34;;;;;;;6.13;4.53;;;;;;;;;;5062970;28;20414;-86
2023/04/20 06:25:00;;;;;;;6.50;4.20;;;;;;;;;;5057332;28;20404;-86
2023/04/20 06:27:29;;;;;;;6.20;4.40;;;;;;;;;;5069226;28;20417;-86
2023/04/20 06:29:55;;;;;;;7.15;4.40;;;;;;;;;;5073604;28;20437;-86
2023/04/20 06:32:21;;;;;;;5.40;4.03;;;;;;;;;;5074108;28;20414;-85
2023/04/20 06:34:47;;;;;;;5.80;4.50;;;;;;;;;;5057064;28;20417;-86
2023/04/20 06:37:13;;;;;;;4.80;4.30;;;;;;;;;;5072936;28;20425;-85
2023/04/20 06:39:39;;;;;;;7.60;4.75;;;;;;;;;;5073771;28;20438;-85
2023/04/20 06:42:06;;;;;;;5.45;4.45;;;;;;;;;;5073811;28;20456;-86
2023/04/20 06:44:32;;;;;;;6.65;5.00;;;;;;;;;;5059923;28;20410;-86
2023/04/20 06:47:01;;;;;;;5.82;5.18;;;;;;;;;;5077999;28;20410;-86
2023/04/20 06:49:27;;;;;;;5.47;4.93;;;;;;;;;;5073667;28;20438;-87
2023/04/20 06:51:53;;;;;;;6.70;5.03;;;;;;;;;;5073727;28;20407;-87
2023/04/20 06:54:21;;;;;;;6.70;4.90;;;;;;;;;;5082941;28;20418;-86
2023/04/20 06:56:47;;;;;;;7.20;5.35;;;;;;;;;;5072798;28;20437;-85
2023/04/20 06:59:16;;;;;;;7.57;4.80;;;;;;;;;;5067990;28;20426;-86
2023/04/20 07:01:45;;;;;;;7.60;5.10;;;;;;;;;;5069335;28;20417;-86
2023/04/20 07:04:11;;;;;;;8.85;5.47;;;;;;;;;;5056920;28;20513;-86
2023/04/20 07:06:37;;;;;;;8.25;5.13;;;;;;;;;;5073895;28;20464;-86
2023/04/20 07:09:07;;;;;;;6.95;5.40;;;;;;;;;;5090583;28;20489;-88
2023/04/20 07:11:35;;;;;;;6.57;5.10;;;;;;;;;;5087993;28;20419;-88
2023/04/20 07:14:02;;;;;;;7.97;5.55;;;;;;;;;;5042260;28;20499;-87
2023/04/20 07:16:30;;;;;;;6.53;5.38;;;;;;;;;;5072407;28;20434;-88
2023/04/20 07:18:56;;;;;;;8.68;5.30;;;;;;;;;;5069717;28;20502;-87
2023/04/20 07:21:22;;;;;;;7.78;5.50;;;;;;;;;;5070453;28;20434;-89
2023/04/20 07:23:49;;;;;;;8.23;5.77;;;;;;;;;;5073298;28;20407;-87
2023/04/20 07:26:15;;;;;;;7.57;6.00;;;;;;;;;;5072559;28;20406;-87
2023/04/20 07:28:41;;;;;;;6.72;5.70;;;;;;;;;;5072491;28;20410;-87
2023/04/20 07:31:08;;;;;;;8.82;6.00;;;;;;;;;;5071353;28;20430;-88
2023/04/20 07:33:34;;;;;;;8.07;5.88;;;;;;;;;;5072075;28;20414;-87
2023/04/20 07:36:00;;;;;;;6.80;5.90;;;;;;;;;;5071357;28;20422;-88
2023/04/20 07:38:27;;;;;;;7.70;6.00;;;;;;;;;;5071827;28;20460;-88
2023/04/20 07:40:53;;;;;;;7.87;6.23;;;;;;;;;;5056051;28;20561;-89
2023/04/20 07:43:19;;;;;;;9.50;6.18;;;;;;;;;;5089640;28;20413;-88
2023/04/20 07:45:47;;;;;;;8.10;6.43;;;;;;;;;;5072903;28;20402;-88
2023/04/20 07:48:13;;;;;;;7.93;6.20;;;;;;;;;;5089451;28;20467;-88
2023/04/20 07:50:39;;;;;;;7.50;6.05;;;;;;;;;;5072144;28;20418;-87
2023/04/20 07:53:06;;;;;;;6.63;5.93;;;;;;;;;;5078874;28;20440;-87
2023/04/20 07:55:34;;;;;;;7.38;6.13;;;;;;;;;;5088323;28;20425;-88
2023/04/20 07:58:00;;;;;;;8.25;5.85;;;;;;;;;;5070974;28;20418;-88
2023/04/20 08:00:26;;;;;;;7.32;6.05;;;;;;;;;;5069487;28;20426;-87
2023/04/20 08:02:53;;;;;;;6.57;5.90;;;;;;;;;;5052288;28;20411;-87
2023/04/20 08:05:19;;;;;;;8.38;6.03;;;;;;;;;;5052327;28;20416;-88
2023/04/20 08:07:45;;;;;;;9.52;6.05;;;;;;;;;;5035826;28;20462;-87
2023/04/20 08:10:11;;;;;;;7.97;6.07;;;;;;;;;;5058227;28;20448;-88
2023/04/20 08:12:38;;;;;;;7.07;6.38;;;;;;;;;;5054832;28;20433;-88
2023/04/20 08:15:05;;;;;;;8.93;6.20;;;;;;;;;;5088708;28;20420;-87
2023/04/20 08:17:32;;;;;;;6.72;6.03;;;;;;;;;;5068864;28;20514;-88
2023/04/20 08:20:06;;;;;;;8.25;5.97;;;;;;;;;;5077035;28;20438;-87
2023/04/20 08:22:34;;;;;;;7.30;5.97;;;;;;;;;;5069973;28;20402;-88
2023/04/20 08:25:01;;;;;;;6.68;5.90;;;;;;;;;;5053512;28;20414;-88
2023/04/20 08:27:29;;;;;;;7.30;6.18;;;;;;;;;;5069741;28;20418;-87
2023/04/20 08:29:55;;;;;;;6.85;6.13;;;;;;;;;;5051986;28;20420;-88
2023/04/20 08:32:23;;;;;;;6.10;5.40;;;;;;;;;;5068725;28;20434;-87
2023/04/20 08:34:50;;;;;;;7.80;6.03;;;;;;;;;;5054101;28;20460;-86
2023/04/20 08:37:16;;;;;;;8.00;6.00;;;;;;;;;;5070587;28;20478;-87
2023/04/20 08:39:45;;;;;;;7.70;6.40;;;;;;;;;;5071628;28;20430;-88
2023/04/20 08:42:11;;;;;;;7.88;6.13;;;;;;;;;;5071729;28;20418;-87
2023/04/20 08:44:37;;;;;;;7.57;6.00;;;;;;;;;;5071900;28;20402;-87
2023/04/20 08:47:03;;;;;;;7.25;6.13;;;;;;;;;;5054701;28;20468;-87
2023/04/20 08:49:32;;;;;;;8.63;5.80;;;;;;;;;;5071555;28;20410;-88
2023/04/20 08:51:58;;;;;;;9.20;6.20;;;;;;;;;;5070714;28;20425;-87
2023/04/20 08:54:24;;;;;;;7.68;6.00;;;;;;;;;;5054712;28;20564;-87
2023/04/20 08:56:53;;;;;;;7.03;5.88;;;;;;;;;;5071171;28;20425;-87
2023/04/20 08:59:19;;;;;;;6.97;5.90;;;;;;;;;;5071511;28;20513;-88
2023/04/20 09:01:45;;;;;;;8.25;5.75;;;;;;;;;;5054647;28;20425;-88
2023/04/20 09:04:15;;;;;;;8.32;6.35;;;;;;;;;;5054856;28;20449;-87
2023/04/20 09:06:51;;;;;;;7.63;6.27;;;;;;;;;;5088001;28;20523;-88
2023/04/20 09:09:18;;;;;;;6.90;5.95;;;;;;;;;;5071228;28;20418;-88
2023/04/20 09:11:44;;;;;;;7.00;6.03;;;;;;;;;;5080320;28;20422;-87
2023/04/20 09:14:20;;;;;;;7.40;5.93;;;;;;;;;;5088376;28;20411;-88
2023/04/20 09:16:50;;;;;;;6.57;5.63;;;;;;;;;;5087925;28;20430;-87
2023/04/20 09:19:40;;;;;;;7.53;5.88;;;;;;;;;;5078050;28;20511;-87
2023/04/20 09:22:06;;;;;;;7.35;5.60;;;;;;;;;;5067979;28;20402;-88
2023/04/20 09:24:36;;;;;;;6.45;5.78;;;;;;;;;;5070595;28;20398;-88
2023/04/20 09:27:03;;;;;;;7.03;6.00;;;;;;;;;;5071527;28;20402;-88
2023/04/20 09:29:29;;;;;;;7.32;5.50;;;;;;;;;;5069185;28;20402;-87
2023/04/20 09:31:58;;;;;;;6.93;5.82;;;;;;;;;;5051089;28;20455;-87
2023/04/20 09:34:24;;;;;;;6.20;5.60;;;;;;;;;;5054468;28;20407;-87
2023/04/20 09:36:54;;;;;;;6.55;5.88;;;;;;;;;;5077508;28;20465;-88
2023/04/20 09:39:21;;;;;;;9.10;5.72;;;;;;;;;;5072756;28;20517;-87
2023/04/20 09:41:48;;;;;;;8.50;5.80;;;;;;;;;;5071736;28;20509;-87
2023/04/20 09:44:15;;;;;;;7.00;5.80;;;;;;;;;;5074125;28;20395;-88
2023/04/20 09:46:44;;;;;;;6.60;5.43;;;;;;;;;;5073809;28;20404;-87
2023/04/20 09:49:12;;;;;;;8.98;5.70;;;;;;;;;;5076426;28;20434;-86
2023/04/20 09:51:43;;;;;;;6.95;5.45;;;;;;;;;;5077101;28;20422;-87
2023/04/20 09:54:10;;;;;;;7.40;5.53;;;;;;;;;;5071824;28;20472;-88
2023/04/20 09:56:36;;;;;;;5.82;4.85;;;;;;;;;;5065294;28;20411;-86
2023/04/20 09:59:03;;;;;;;5.60;5.03;;;;;;;;;;5073129;28;20493;-86
2023/04/20 10:01:30;;;;;;;5.28;4.78;;;;;;;;;;5064988;28;20398;-86
2023/04/20 10:03:57;;;;;;;6.67;5.00;;;;;;;;;;5092113;28;20536;-86
2023/04/20 10:06:27;;;;;;;5.75;4.85;;;;;;;;;;5091831;28;20483;-88
2023/04/20 10:08:53;;;;;;;5.97;4.82;;;;;;;;;;5092263;28;20474;-88
2023/04/20 10:11:31;;;;;;;5.75;4.90;;;;;;;;;;5086173;28;20406;-88
2023/04/20 10:13:59;;;;;;;6.15;4.88;;;;;;;;;;5075058;28;20413;-87
2023/04/20 10:16:26;;;;;;;5.43;4.57;;;;;;;;;;5074870;28;20404;-87
2023/04/20 10:18:59;;;;;;;5.10;4.60;;;;;;;;;;5075350;28;20405;-87
2023/04/20 10:21:26;;;;;;;5.57;4.80;;;;;;;;;;5074703;28;20472;-87
2023/04/20 10:23:53;;;;;;;5.70;4.10;;;;;;;;;;5074528;28;20511;-88
2023/04/20 10:26:21;;;;;;;5.78;4.70;;;;;;;;;;5074908;28;20402;-87
2023/04/20 10:28:47;;;;;;;5.03;4.40;;;;;;;;;;5074543;28;20488;-87
2023/04/20 10:31:16;;;;;;;5.57;4.30;;;;;;;;;;5074138;28;20438;-88
2023/04/20 10:33:49;;;;;;;4.75;4.00;;;;;;;;;;5071163;28;20465;-86
2023/04/20 10:36:29;;;;;;;5.57;4.30;;;;;;;;;;5070946;28;20407;-87
2023/04/20 10:38:56;;;;;;;5.13;4.40;;;;;;;;;;5090010;28;20517;-87
2023/04/20 10:41:41;;;;;;;6.38;4.50;;;;;;;;;;5077850;28;20501;-89
2023/04/20 10:44:09;;;;;;;5.72;4.40;;;;;;;;;;5073845;28;20469;-88
2023/04/20 10:49:43;;;;;;;5.57;4.10;;;;;;;;;;5074611;28;20504;-87
2023/04/20 10:52:09;;;;;;;4.88;4.18;;;;;;;;;;5073998;28;20513;-87
2023/04/20 10:54:51;;;;;;;5.55;4.18;;;;;;;;;;5074011;28;20477;-87
2023/04/20 10:57:29;;;;;;;5.43;4.22;;;;;;;;;;5058193;28;20421;-88
2023/04/20 11:00:33;;;;;;;4.70;4.20;;;;;;;;;;5073894;28;20422;-87
2023/04/20 11:03:11;;;;;;;;;;;;;;;;;;;;;
2023/04/20 11:05:43;;;;;;;4.95;4.32;;;;;;;;;;5073906;28;20417;-87
2023/04/20 11:08:24;;;;;;;4.63;4.23;;;;;;;;;;5073664;28;20390;-87
2023/04/20 11:10:50;;;;;;;5.22;4.60;;;;;;;;;;5073427;28;20406;-87
2023/04/20 11:13:22;;;;;;;5.00;4.47;;;;;;;;;;5073909;28;20482;-87
2023/04/20 11:15:48;;;;;;;5.20;4.70;;;;;;;;;;5073668;28;20400;-87
2023/04/20 11:18:14;;;;;;;5.63;4.70;;;;;;;;;;5073882;28;20426;-87
2023/04/20 11:21:25;;;;;;;;;;;;;;;;;;;;;
2023/04/20 11:27:07;;;;;;;5.30;4.80;;;;;;;;;;5063770;28;20389;-89
2023/04/20 11:29:51;;;;;;;5.80;4.88;;;;;;;;;;5073344;28;20410;-88
2023/04/20 11:32:37;;;;;;;6.78;5.10;;;;;;;;;;5082135;28;20488;-88
2023/04/20 11:35:07;;;;;;;5.45;5.00;;;;;;;;;;5073554;28;20402;-88
2023/04/20 11:37:50;;;;;;;6.18;4.90;;;;;;;;;;5068550;28;20476;-89
2023/04/20 11:40:19;;;;;;;6.03;5.10;;;;;;;;;;5053234;28;20468;-88
2023/04/20 11:42:54;;;;;;;6.53;5.17;;;;;;;;;;5054033;28;20176;-88
2023/04/20 11:45:33;;;;;;;5.65;5.15;;;;;;;;;;5053362;28;20407;-88
2023/04/20 11:48:03;;;;;;;6.95;5.35;;;;;;;;;;5053377;28;20481;-88
2023/04/20 11:53:44;;;;;;;5.97;5.20;;;;;;;;;;5046233;28;20408;-88
2023/04/20 11:56:19;;;;;;;6.68;5.40;;;;;;;;;;5053309;28;20420;-88
2023/04/20 11:59:01;;;;;;;6.93;5.60;;;;;;;;;;5072448;28;20489;-88
2023/04/20 12:01:35;;;;;;;6.13;5.53;;;;;;;;;;5090556;28;20484;-88
2023/04/20 12:06:47;;;;;;;6.47;5.90;;;;;;;;;;5053813;28;20404;-89
2023/04/20 12:09:14;;;;;;;6.88;5.68;;;;;;;;;;5069431;28;20408;-88
2023/04/20 12:11:40;;;;;;;6.45;5.85;;;;;;;;;;5069075;28;20404;-88
2023/04/20 12:14:12;;;;;;;6.43;5.78;;;;;;;;;;5053078;28;20414;-88
2023/04/20 12:16:38;;;;;;;6.68;6.07;;;;;;;;;;5052954;28;20415;-89
2023/04/20 12:19:10;;;;;;;6.47;5.87;;;;;;;;;;5035699;28;20412;-88
2023/04/20 12:21:36;;;;;;;6.90;6.20;;;;;;;;;;5052305;28;20403;-88
2023/04/20 12:24:06;;;;;;;6.63;5.97;;;;;;;;;;5052480;28;20504;-88
2023/04/20 12:26:58;;;;;;;6.57;5.88;;;;;;;;;;5065459;28;20406;-88
2023/04/20 12:29:24;;;;;;;6.82;6.22;;;;;;;;;;5087796;28;20513;-88
2023/04/20 12:31:54;;;;;;;6.70;6.10;;;;;;;;;;5089007;28;20508;-88
2023/04/20 12:34:20;;;;;;;6.80;6.20;;;;;;;;;;5074651;28;20418;-88
2023/04/20 12:36:55;;;;;;;7.27;6.20;;;;;;;;;;5089251;28;20406;-88
2023/04/20 12:39:39;;;;;;;6.93;6.23;;;;;;;;;;5088929;28;20438;-89
2023/04/20 12:42:05;;;;;;;7.03;6.00;;;;;;;;;;5089021;28;20406;-89
2023/04/20 12:44:38;;;;;;;6.35;5.75;;;;;;;;;;5089042;28;20481;-88
2023/04/20 12:47:06;;;;;;;6.57;5.97;;;;;;;;;;5088851;28;20410;-89
2023/04/20 12:49:41;;;;;;;6.88;5.88;;;;;;;;;;5052611;28;20408;-88
2023/04/20 12:52:07;;;;;;;6.30;5.80;;;;;;;;;;5078814;28;20414;-89
2023/04/20 12:54:34;;;;;;;6.68;6.07;;;;;;;;;;5072555;28;20397;-88
2023/04/20 12:57:01;;;;;;;6.68;6.07;;;;;;;;;;5072172;28;20417;-87
2023/04/20 12:59:27;;;;;;;6.40;5.85;;;;;;;;;;5071848;28;20505;-89
2023/04/20 13:01:56;;;;;;;7.07;6.35;;;;;;;;;;5072049;28;20414;-87
2023/04/20 13:04:35;;;;;;;6.73;6.03;;;;;;;;;;5071751;28;20497;-88
2023/04/20 13:07:01;;;;;;;7.10;6.10;;;;;;;;;;5071915;28;20409;-87
2023/04/20 13:09:27;;;;;;;6.93;6.22;;;;;;;;;;5071856;28;20505;-87
2023/04/20 13:11:56;;;;;;;6.80;6.20;;;;;;;;;;5073126;28;20418;-90
2023/04/20 13:14:23;;;;;;;6.50;5.90;;;;;;;;;;5076097;28;20413;-90
2023/04/20 13:16:56;;;;;;;6.80;6.10;;;;;;;;;;5075977;28;20460;-91
2023/04/20 13:19:22;;;;;;;7.45;6.43;;;;;;;;;;5076047;28;20448;-90
2023/04/20 13:21:48;;;;;;;7.57;6.35;;;;;;;;;;5076425;28;20417;-90
2023/04/20 13:24:20;;;;;;;6.82;6.20;;;;;;;;;;5075569;28;20402;-90
2023/04/20 13:26:46;;;;;;;7.03;6.40;;;;;;;;;;5059227;28;20403;-90
2023/04/20 13:29:15;;;;;;;7.47;6.20;;;;;;;;;;5075998;28;20418;-92
2023/04/20 13:31:41;;;;;;;7.53;6.63;;;;;;;;;;5075847;28;20422;-93
2023/04/20 13:34:07;;;;;;;6.55;5.95;;;;;;;;;;5075733;28;20528;-91
2023/04/20 13:36:33;;;;;;;6.70;6.10;;;;;;;;;;5076119;28;20456;-89
2023/04/20 13:39:09;;;;;;;7.07;6.37;;;;;;;;;;5075725;28;20496;-91
2023/04/20 13:41:38;;;;;;;7.30;6.60;;;;;;;;;;5075936;28;20411;-91
2023/04/20 13:44:05;;;;;;;7.38;6.68;;;;;;;;;;5075722;28;20407;-90
2023/04/20 13:46:34;;;;;;;7.53;5.87;;;;;;;;;;5077223;28;20185;-91
2023/04/20 13:49:00;;;;;;;7.40;6.70;;;;;;;;;;5075384;28;20402;-91
2023/04/20 13:51:32;;;;;;;7.43;6.72;;;;;;;;;;5075340;28;20402;-92
2023/04/20 13:53:59;;;;;;;7.97;6.63;;;;;;;;;;5075295;28;20428;-91
2023/04/20 13:56:27;;;;;;;7.55;6.95;;;;;;;;;;5058799;28;20410;-91
2023/04/20 13:58:55;;;;;;;7.28;6.57;;;;;;;;;;5076278;28;20410;-92
2023/04/20 14:01:21;;;;;;;7.47;6.88;;;;;;;;;;5058579;28;20442;-92
2023/04/20 14:03:48;;;;;;;8.68;7.05;;;;;;;;;;5075917;28;20406;-92
2023/04/20 14:06:19;;;;;;;7.70;7.00;;;;;;;;;;5075330;28;20402;-93
2023/04/20 14:08:45;;;;;;;7.72;6.95;;;;;;;;;;5075350;28;20402;-93
2023/04/20 14:14:00;;;;;;;7.73;6.90;;;;;;;;;;5076380;28;20406;-89
2023/04/20 14:16:52;;;;;;;8.35;7.45;;;;;;;;;;5075243;28;20489;-93
2023/04/20 14:19:18;;;;;;;7.70;7.00;;;;;;;;;;5073994;28;20414;-93
2023/04/20 14:24:40;;;;;;;7.47;6.78;;;;;;;;;;5102312;22;20439;-82
2023/04/20 14:27:06;;;;;;;7.55;6.80;;;;;;;;;;5066068;28;20403;-82
2023/04/20 14:29:32;;;;;;;7.93;6.80;;;;;;;;;;5083187;28;20411;-82
2023/04/20 14:31:59;;;;;;;33.95;31.08;;;;;;;;;;5077838;28;20503;-82
2023/04/20 14:34:25;;;;;;;7.72;7.03;;;;;;;;;;5058373;28;20368;-83
2023/04/20 14:36:51;;;;;;;7.95;7.25;;;;;;;;;;5060989;28;20419;-82
2023/04/20 14:39:22;;;;;;;7.70;7.00;;;;;;;;;;5061296;28;20488;-82
2023/04/20 14:41:48;;;;;;;7.35;6.65;;;;;;;;;;5095591;28;20397;-82
2023/04/20 14:44:14;;;;;;;7.83;7.23;;;;;;;;;;5077323;28;20424;-82
2023/04/20 14:46:40;;;;;;;7.82;7.22;;;;;;;;;;5078011;28;20432;-82
2023/04/20 14:49:07;;;;;;;7.20;6.60;;;;;;;;;;5066055;28;20632;-82
2023/04/20 14:51:33;;;;;;;7.53;6.90;;;;;;;;;;5061039;28;20488;-82
2023/04/20 14:53:59;;;;;;;16.97;7.17;;;;;;;;;;5060876;28;20444;-82
2023/04/20 14:56:25;;;;;;;12.60;7.13;;;;;;;;;;5077904;28;20436;-84
2023/04/20 14:58:51;;;;;;;15.60;7.00;;;;;;;;;;5060528;28;20424;-82
2023/04/20 15:01:17;;;;;;;21.63;7.30;;;;;;;;;;5077528;28;20511;-82
2023/04/20 15:03:43;;;;;;;14.70;7.05;;;;;;;;;;5061082;28;20443;-83
2023/04/20 15:06:10;;;;;;;12.40;6.90;;;;;;;;;;5063936;28;20404;-80
2023/04/20 15:08:36;;;;;;;10.50;6.87;;;;;;;;;;5115986;28;20387;-82